createdAt,value
2018-07-01T00:00:19.765Z,15.50
2018-07-01T00:02:48.117Z,15.60
2018-07-01T00:05:16.603Z,15.50
2018-07-01T00:07:45.055Z,15.30
2018-07-01T00:10:13.587Z,15.30
2018-07-01T00:12:42.046Z,15.20
2018-07-01T00:15:10.538Z,15.20
2018-07-01T00:17:38.980Z,15.20
2018-07-01T00:20:08.998Z,15.20
2018-07-01T00:22:37.999Z,15.10
2018-07-01T00:25:06.866Z,15.00
2018-07-01T00:27:35.313Z,15.00
2018-07-01T00:30:03.952Z,15.00
2018-07-01T00:32:32.398Z,14.90
2018-07-01T00:35:00.879Z,14.90
2018-07-01T00:37:29.339Z,14.90
2018-07-01T00:39:57.873Z,14.90
2018-07-01T00:42:26.318Z,14.90
2018-07-01T00:44:54.781Z,14.80
2018-07-01T00:47:23.217Z,14.80
2018-07-01T00:49:51.706Z,14.80
2018-07-01T00:52:20.129Z,14.70
2018-07-01T00:54:48.545Z,14.60
2018-07-01T00:57:16.991Z,14.50
2018-07-01T00:59:45.425Z,14.50
2018-07-01T01:02:13.860Z,14.50
2018-07-01T01:04:42.280Z,14.40
2018-07-01T01:07:10.713Z,14.40
2018-07-01T01:09:39.195Z,14.40
2018-07-01T01:12:07.603Z,14.40
2018-07-01T01:14:36.063Z,14.30
2018-07-01T01:17:04.518Z,14.30
2018-07-01T01:19:33.001Z,14.30
2018-07-01T01:22:01.497Z,14.30
2018-07-01T01:24:30.069Z,14.20
2018-07-01T01:26:58.545Z,14.10
2018-07-01T01:29:26.987Z,14.10
2018-07-01T01:31:55.449Z,14.10
2018-07-01T01:36:52.174Z,14.00
2018-07-01T01:39:25.858Z,14.00
2018-07-01T01:41:58.744Z,14.10
2018-07-01T01:44:31.940Z,14.10
2018-07-01T01:47:05.325Z,14.10
2018-07-01T01:49:41.112Z,14.00
2018-07-01T01:52:18.879Z,14.00
2018-07-01T01:54:54.422Z,13.90
2018-07-01T01:57:30.211Z,13.90
2018-07-01T02:00:04.632Z,13.80
2018-07-01T02:03:35.977Z,13.90
2018-07-01T02:06:08.865Z,13.90
2018-07-01T02:08:41.299Z,13.90
2018-07-01T02:11:09.859Z,13.90
2018-07-01T02:13:41.281Z,13.70
2018-07-01T02:16:14.062Z,13.70
2018-07-01T02:18:42.562Z,13.70
2018-07-01T02:23:44.793Z,13.70
2018-07-01T02:26:13.261Z,13.70
2018-07-01T02:28:41.781Z,13.60
2018-07-01T02:31:10.305Z,13.60
2018-07-01T02:33:38.783Z,13.60
2018-07-01T02:36:07.221Z,13.60
2018-07-01T02:38:35.724Z,13.60
2018-07-01T02:41:04.190Z,13.50
2018-07-01T02:43:32.747Z,13.50
2018-07-01T02:46:01.253Z,13.40
2018-07-01T02:48:29.747Z,13.30
2018-07-01T02:50:58.284Z,13.30
2018-07-01T02:53:26.761Z,13.30
2018-07-01T02:55:55.205Z,13.30
2018-07-01T02:58:23.710Z,13.30
2018-07-01T03:00:52.223Z,13.20
2018-07-01T03:03:20.742Z,13.10
2018-07-01T03:05:49.275Z,13.10
2018-07-01T03:08:17.882Z,13.00
2018-07-01T03:10:46.503Z,12.90
2018-07-01T03:13:15.179Z,12.80
2018-07-01T03:15:43.864Z,12.80
2018-07-01T03:18:12.663Z,12.80
2018-07-01T03:20:41.583Z,12.80
2018-07-01T03:23:10.200Z,12.80
2018-07-01T03:25:38.811Z,12.80
2018-07-01T03:28:07.822Z,12.70
2018-07-01T03:30:36.568Z,12.80
2018-07-01T03:33:05.493Z,12.70
2018-07-01T03:35:34.204Z,12.70
2018-07-01T03:38:02.991Z,12.70
2018-07-01T03:40:31.822Z,12.70
2018-07-01T03:43:00.544Z,12.70
2018-07-01T03:47:57.669Z,12.60
2018-07-01T03:50:26.328Z,12.70
2018-07-01T03:52:55.012Z,12.90
2018-07-01T03:55:23.559Z,12.90
2018-07-01T03:57:52.239Z,12.80
2018-07-01T04:00:21.212Z,12.70
2018-07-01T04:02:49.816Z,12.70
2018-07-01T04:07:46.816Z,12.80
2018-07-01T04:10:15.428Z,12.80
2018-07-01T04:12:44.285Z,12.80
2018-07-01T04:15:12.939Z,12.80
2018-07-01T04:17:41.762Z,12.90
2018-07-01T04:20:10.421Z,12.80
2018-07-01T04:22:39.079Z,12.80
2018-07-01T04:25:07.756Z,12.80
2018-07-01T04:27:36.573Z,12.80
2018-07-01T04:32:34.295Z,12.80
2018-07-01T04:35:03.184Z,12.80
2018-07-01T04:37:31.898Z,12.80
2018-07-01T04:40:00.689Z,12.80
2018-07-01T04:42:29.578Z,12.80
2018-07-01T04:44:58.431Z,12.80
2018-07-01T04:47:27.074Z,12.90
2018-07-01T04:49:55.877Z,12.90
2018-07-01T04:54:53.247Z,12.90
2018-07-01T04:57:22.145Z,13.00
2018-07-01T04:59:50.981Z,13.00
2018-07-01T05:02:20.910Z,13.00
2018-07-01T05:04:49.761Z,13.10
2018-07-01T05:07:18.825Z,13.10
2018-07-01T05:09:47.573Z,13.20
2018-07-01T05:12:16.295Z,13.20
2018-07-01T05:17:13.664Z,13.30
2018-07-01T05:19:42.529Z,13.40
2018-07-01T05:22:11.355Z,13.40
2018-07-01T05:24:40.020Z,13.40
2018-07-01T05:27:08.765Z,13.50
2018-07-01T05:29:37.470Z,13.70
2018-07-01T05:32:06.170Z,13.70
2018-07-01T05:34:34.893Z,13.70
2018-07-01T05:37:03.631Z,13.80
2018-07-01T05:39:32.217Z,13.90
2018-07-01T05:42:00.755Z,14.00
2018-07-01T05:44:29.414Z,14.00
2018-07-01T05:46:58.069Z,14.00
2018-07-01T05:49:26.720Z,14.10
2018-07-01T05:51:55.262Z,14.20
2018-07-01T05:54:24.095Z,14.30
2018-07-01T05:56:52.845Z,14.40
2018-07-01T05:59:21.426Z,14.40
2018-07-01T06:01:49.944Z,14.60
2018-07-01T06:04:18.557Z,14.60
2018-07-01T06:06:47.176Z,14.70
2018-07-01T06:09:15.786Z,14.80
2018-07-01T06:11:44.276Z,14.80
2018-07-01T06:14:13.001Z,14.90
2018-07-01T06:16:41.612Z,15.00
2018-07-01T06:19:10.321Z,15.10
2018-07-01T06:21:39.540Z,15.20
2018-07-01T06:24:08.040Z,15.20
2018-07-01T06:26:36.602Z,15.30
2018-07-01T06:29:05.154Z,15.40
2018-07-01T06:31:33.695Z,15.50
2018-07-01T06:34:02.249Z,15.50
2018-07-01T06:36:31.021Z,15.70
2018-07-01T06:38:59.487Z,15.70
2018-07-01T06:41:27.975Z,15.80
2018-07-01T06:43:56.406Z,15.90
2018-07-01T06:46:25.038Z,15.90
2018-07-01T06:51:21.694Z,16.10
2018-07-01T06:53:50.134Z,16.20
2018-07-01T06:56:18.595Z,16.20
2018-07-01T06:58:47.054Z,16.30
2018-07-01T07:01:15.510Z,16.50
2018-07-01T07:03:43.946Z,16.60
2018-07-01T07:06:12.430Z,16.70
2018-07-01T07:08:40.931Z,16.70
2018-07-01T07:11:09.377Z,16.90
2018-07-01T07:13:37.868Z,17.10
2018-07-01T07:16:06.311Z,17.20
2018-07-01T07:18:34.796Z,17.30
2018-07-01T07:21:03.237Z,17.40
2018-07-01T07:23:32.029Z,17.30
2018-07-01T07:26:00.491Z,17.60
2018-07-01T07:28:28.937Z,17.80
2018-07-01T07:30:57.498Z,18.10
2018-07-01T07:33:25.943Z,18.40
2018-07-01T07:35:54.419Z,18.50
2018-07-01T07:38:22.886Z,18.70
2018-07-01T07:40:51.331Z,18.90
2018-07-01T07:43:19.774Z,19.00
2018-07-01T07:45:48.225Z,19.00
2018-07-01T07:48:16.673Z,19.30
2018-07-01T07:50:45.138Z,19.20
2018-07-01T07:55:41.777Z,19.70
2018-07-01T07:58:10.299Z,19.80
2018-07-01T08:00:38.764Z,19.60
2018-07-01T08:03:07.375Z,20.10
2018-07-01T08:05:37.985Z,20.70
2018-07-01T08:08:06.709Z,21.30
2018-07-01T08:10:35.221Z,21.80
2018-07-01T08:13:03.751Z,22.40
2018-07-01T08:15:33.355Z,22.80
2018-07-01T08:18:01.815Z,22.70
2018-07-01T08:20:30.304Z,23.30
2018-07-01T08:22:58.723Z,23.40
2018-07-01T08:25:27.203Z,23.30
2018-07-01T08:27:55.680Z,23.50
2018-07-01T08:30:24.223Z,24.60
2018-07-01T08:32:52.669Z,24.80
2018-07-01T08:35:21.125Z,25.20
2018-07-01T08:37:49.601Z,25.70
2018-07-01T08:40:18.077Z,25.90
2018-07-01T08:42:46.573Z,25.70
2018-07-01T08:45:15.029Z,26.20
2018-07-01T08:47:43.522Z,26.90
2018-07-01T08:50:12.005Z,27.50
2018-07-01T08:52:40.494Z,27.70
2018-07-01T08:55:08.970Z,28.60
2018-07-01T08:57:37.481Z,27.70
2018-07-01T09:00:07.165Z,28.50
2018-07-01T09:02:35.806Z,28.40
2018-07-01T09:05:04.771Z,28.00
2018-07-01T09:10:01.377Z,27.10
2018-07-01T09:12:29.840Z,27.70
2018-07-01T09:14:59.577Z,29.20
2018-07-01T09:17:28.038Z,28.80
2018-07-01T09:19:56.520Z,29.50
2018-07-01T09:22:24.977Z,29.20
2018-07-01T09:24:54.149Z,29.80
2018-07-01T09:27:22.680Z,28.80
2018-07-01T09:29:56.445Z,28.80
2018-07-01T09:32:24.934Z,29.10
2018-07-01T09:34:53.362Z,28.20
2018-07-01T09:37:21.802Z,29.20
2018-07-01T09:39:50.278Z,29.90
2018-07-01T09:42:18.733Z,29.80
2018-07-01T09:44:47.954Z,29.40
2018-07-01T09:47:16.372Z,29.20
2018-07-01T09:49:44.842Z,28.30
2018-07-01T09:52:13.366Z,28.70
2018-07-01T09:54:41.805Z,28.50
2018-07-01T09:57:10.276Z,28.90
2018-07-01T09:59:38.732Z,28.70
2018-07-01T10:02:07.175Z,29.20
2018-07-01T10:04:36.457Z,30.10
2018-07-01T10:07:05.279Z,30.40
2018-07-01T10:09:34.079Z,29.70
2018-07-01T10:12:02.581Z,29.30
2018-07-01T10:14:31.057Z,28.90
2018-07-01T10:16:59.635Z,29.70
2018-07-01T10:19:28.318Z,29.50
2018-07-01T10:21:56.814Z,28.60
2018-07-01T10:24:25.287Z,29.20
2018-07-01T10:26:53.787Z,29.80
2018-07-01T10:29:22.247Z,30.20
2018-07-01T10:31:50.711Z,28.80
2018-07-01T10:34:19.158Z,28.90
2018-07-01T10:36:47.620Z,29.10
2018-07-01T10:39:17.289Z,29.40
2018-07-01T10:41:46.547Z,29.10
2018-07-01T10:44:14.968Z,28.20
2018-07-01T10:46:43.447Z,28.10
2018-07-01T10:49:11.884Z,28.10
2018-07-01T10:51:40.479Z,26.70
2018-07-01T10:54:08.927Z,27.50
2018-07-01T10:56:37.418Z,28.10
2018-07-01T10:59:05.898Z,28.00
2018-07-01T11:01:35.276Z,27.40
2018-07-01T11:04:03.743Z,27.80
2018-07-01T11:06:33.149Z,28.60
2018-07-01T11:09:01.583Z,28.60
2018-07-01T11:11:30.083Z,27.60
2018-07-01T11:13:58.531Z,27.70
2018-07-01T11:16:27.602Z,27.90
2018-07-01T11:18:56.107Z,28.00
2018-07-01T11:21:24.564Z,27.70
2018-07-01T11:23:53.230Z,27.40
2018-07-01T11:26:21.705Z,27.20
2018-07-01T11:28:50.627Z,27.10
2018-07-01T11:31:19.080Z,26.90
2018-07-01T11:33:47.498Z,26.90
2018-07-01T11:36:16.004Z,26.90
2018-07-01T11:38:44.491Z,27.40
2018-07-01T11:41:12.994Z,28.00
2018-07-01T11:43:41.452Z,27.80
2018-07-01T11:46:09.890Z,27.40
2018-07-01T11:48:38.371Z,27.70
2018-07-01T11:51:06.926Z,27.50
2018-07-01T11:53:35.394Z,27.80
2018-07-01T11:56:03.895Z,28.50
2018-07-01T11:58:32.371Z,28.90
2018-07-01T12:01:04.025Z,27.80
2018-07-01T12:03:32.509Z,27.80
2018-07-01T12:06:01.166Z,27.70
2018-07-01T12:08:29.652Z,27.80
2018-07-01T12:11:01.033Z,28.30
2018-07-01T12:13:29.549Z,28.30
2018-07-01T12:15:59.447Z,27.60
2018-07-01T12:18:28.219Z,27.20
2018-07-01T12:20:57.628Z,28.40
2018-07-01T12:23:26.149Z,28.60
2018-07-01T12:25:54.572Z,29.10
2018-07-01T12:28:23.125Z,29.10
2018-07-01T12:30:51.591Z,28.40
2018-07-01T12:33:22.408Z,28.70
2018-07-01T12:35:50.973Z,28.80
2018-07-01T12:38:19.454Z,28.90
2018-07-01T12:40:47.907Z,28.80
2018-07-01T12:43:16.382Z,29.30
2018-07-01T12:45:44.865Z,29.90
2018-07-01T12:48:13.364Z,29.60
2018-07-01T12:50:41.812Z,29.70
2018-07-01T12:53:10.254Z,29.50
2018-07-01T12:55:38.712Z,29.50
2018-07-01T12:58:07.214Z,30.20
2018-07-01T13:00:35.691Z,30.30
2018-07-01T13:03:04.170Z,30.60
2018-07-01T13:05:32.626Z,30.50
2018-07-01T13:08:01.077Z,30.90
2018-07-01T13:10:29.560Z,30.20
2018-07-01T13:12:58.063Z,30.50
2018-07-01T13:15:26.519Z,30.80
2018-07-01T13:17:55.579Z,31.40
2018-07-01T13:20:24.043Z,31.80
2018-07-01T13:22:53.486Z,31.70
2018-07-01T13:25:22.008Z,32.30
2018-07-01T13:27:51.095Z,31.50
2018-07-01T13:30:19.526Z,32.00
2018-07-01T13:32:48.030Z,31.70
2018-07-01T13:35:16.602Z,31.30
2018-07-01T13:37:46.482Z,31.30
2018-07-01T13:40:15.007Z,31.20
2018-07-01T13:42:43.507Z,31.50
2018-07-01T13:45:11.953Z,31.90
2018-07-01T13:47:40.420Z,32.60
2018-07-01T13:50:09.009Z,33.20
2018-07-01T13:52:37.412Z,32.10
2018-07-01T13:55:05.895Z,32.00
2018-07-01T13:57:34.383Z,32.80
2018-07-01T14:00:02.924Z,31.60
2018-07-01T14:02:32.547Z,31.90
2018-07-01T14:05:01.075Z,31.10
2018-07-01T14:07:29.532Z,31.30
2018-07-01T14:09:58.520Z,31.30
2018-07-01T14:12:26.993Z,32.20
2018-07-01T14:14:55.481Z,32.10
2018-07-01T14:17:23.941Z,32.40
2018-07-01T14:19:52.556Z,32.40
2018-07-01T14:22:20.997Z,31.90
2018-07-01T14:24:49.439Z,31.10
2018-07-01T14:27:17.976Z,32.00
2018-07-01T14:29:46.381Z,33.00
2018-07-01T14:32:14.818Z,32.00
2018-07-01T14:34:43.281Z,32.20
2018-07-01T14:37:11.756Z,31.10
2018-07-01T14:39:40.472Z,31.20
2018-07-01T14:42:09.710Z,32.00
2018-07-01T14:44:38.187Z,33.10
2018-07-01T14:47:06.696Z,32.10
2018-07-01T14:49:35.798Z,31.50
2018-07-01T14:52:04.391Z,30.60
2018-07-01T14:54:32.870Z,31.30
2018-07-01T14:57:01.413Z,31.40
2018-07-01T14:59:29.960Z,31.50
2018-07-01T15:01:58.505Z,31.20
2018-07-01T15:04:27.012Z,30.00
2018-07-01T15:06:55.446Z,28.60
2018-07-01T15:09:23.869Z,28.80
2018-07-01T15:11:52.442Z,28.50
2018-07-01T15:14:20.962Z,28.30
2018-07-01T15:16:49.446Z,27.20
2018-07-01T15:19:17.975Z,26.70
2018-07-01T15:21:46.413Z,26.80
2018-07-01T15:24:15.081Z,26.80
2018-07-01T15:26:43.563Z,26.80
2018-07-01T15:29:12.281Z,26.40
2018-07-01T15:31:40.671Z,26.20
2018-07-01T15:34:10.251Z,25.90
2018-07-01T15:36:38.677Z,26.40
2018-07-01T15:39:09.517Z,26.10
2018-07-01T15:41:37.971Z,25.90
2018-07-01T15:44:06.445Z,25.90
2018-07-01T15:46:35.002Z,25.70
2018-07-01T15:49:03.665Z,25.50
2018-07-01T15:51:32.147Z,25.30
2018-07-01T15:54:00.745Z,25.20
2018-07-01T15:56:30.494Z,25.00
2018-07-01T15:58:58.970Z,25.00
2018-07-01T16:01:27.986Z,25.00
2018-07-01T16:03:56.433Z,25.20
2018-07-01T16:06:24.990Z,24.70
2018-07-01T16:08:53.404Z,24.40
2018-07-01T16:11:22.120Z,24.40
2018-07-01T16:13:50.594Z,24.50
2018-07-01T16:16:19.089Z,24.60
2018-07-01T16:18:47.553Z,24.70
2018-07-01T16:21:16.052Z,24.70
2018-07-01T16:23:44.464Z,24.40
2018-07-01T16:26:18.239Z,24.10
2018-07-01T16:28:52.121Z,24.40
2018-07-01T16:34:12.018Z,24.10
2018-07-01T16:36:40.466Z,23.90
2018-07-01T16:39:10.927Z,23.90
2018-07-01T16:41:39.379Z,23.80
2018-07-01T16:44:08.101Z,24.00
2018-07-01T16:46:36.577Z,23.90
2018-07-01T16:49:05.251Z,23.70
2018-07-01T16:51:33.710Z,23.70
2018-07-01T16:54:02.248Z,23.40
2018-07-01T16:56:30.695Z,23.30
2018-07-01T16:58:59.375Z,23.50
2018-07-01T17:01:28.061Z,23.40
2018-07-01T17:03:56.517Z,23.30
2018-07-01T17:06:24.959Z,23.30
2018-07-01T17:08:53.899Z,23.20
2018-07-01T17:11:22.390Z,23.20
2018-07-01T17:13:50.894Z,23.00
2018-07-01T17:16:19.404Z,23.00
2018-07-01T17:18:47.853Z,22.90
2018-07-01T17:21:16.317Z,22.90
2018-07-01T17:23:44.793Z,22.70
2018-07-01T17:26:13.838Z,22.60
2018-07-01T17:28:42.697Z,22.40
2018-07-01T17:31:16.660Z,22.30
2018-07-01T17:33:45.138Z,22.30
2018-07-01T17:36:13.658Z,22.30
2018-07-01T17:38:42.191Z,22.10
2018-07-01T17:41:10.629Z,22.10
2018-07-01T17:43:39.658Z,22.20
2018-07-01T17:46:08.144Z,22.10
2018-07-01T17:48:36.658Z,22.10
2018-07-01T17:51:05.210Z,22.10
2018-07-01T17:53:45.072Z,21.80
2018-07-01T17:56:13.542Z,21.80
2018-07-01T17:58:42.028Z,21.90
2018-07-01T18:01:10.494Z,21.70
2018-07-01T18:03:39.474Z,21.70
2018-07-01T18:06:07.991Z,21.50
2018-07-01T18:08:37.613Z,21.60
2018-07-01T18:11:06.092Z,21.50
2018-07-01T18:13:34.629Z,21.30
2018-07-01T18:16:03.051Z,21.20
2018-07-01T18:18:31.536Z,21.30
2018-07-01T18:21:00.995Z,21.20
2018-07-01T18:24:02.966Z,21.10
2018-07-01T18:25:57.973Z,21.10
2018-07-01T18:28:37.862Z,21.00
2018-07-01T18:30:55.121Z,20.90
2018-07-01T18:33:23.707Z,20.80
2018-07-01T18:35:52.225Z,20.70
2018-07-01T18:38:20.689Z,20.70
2018-07-01T18:40:49.638Z,20.70
2018-07-01T18:43:17.915Z,20.60
2018-07-01T18:45:46.454Z,20.60
2018-07-01T18:48:15.026Z,20.40
2018-07-01T18:50:43.515Z,20.30
2018-07-01T18:53:11.967Z,20.30
2018-07-01T18:55:40.773Z,20.20
2018-07-01T18:58:09.201Z,20.10
2018-07-01T19:00:37.687Z,20.10
2018-07-01T19:03:06.142Z,20.10
2018-07-01T19:05:34.605Z,20.00
2018-07-01T19:08:03.090Z,19.80
2018-07-01T19:10:31.741Z,19.70
2018-07-01T19:13:00.219Z,19.70
2018-07-01T19:15:28.636Z,19.60
2018-07-01T19:17:57.101Z,19.40
2018-07-01T19:20:25.598Z,19.40
2018-07-01T19:22:54.075Z,19.30
2018-07-01T19:25:22.575Z,19.20
2018-07-01T19:27:51.090Z,19.20
2018-07-01T19:30:21.667Z,19.10
2018-07-01T19:32:50.244Z,19.00
2018-07-01T19:38:17.303Z,18.80
2018-07-01T19:40:45.766Z,18.70
2018-07-01T19:43:14.307Z,18.70
2018-07-01T19:45:42.747Z,18.50
2018-07-01T19:48:11.326Z,18.40
2018-07-01T19:50:39.814Z,18.30
2018-07-01T19:53:08.278Z,18.30
2018-07-01T19:55:36.722Z,18.20
2018-07-01T19:58:05.247Z,18.10
2018-07-01T20:00:33.719Z,18.00
2018-07-01T20:03:02.241Z,18.00
2018-07-01T20:05:30.698Z,17.90
2018-07-01T20:07:59.195Z,17.90
2018-07-01T20:10:27.675Z,17.70
2018-07-01T20:12:56.134Z,17.70
2018-07-01T20:15:24.606Z,17.70
2018-07-01T20:17:53.564Z,17.60
2018-07-01T20:20:22.010Z,17.60
2018-07-01T20:22:50.478Z,17.40
2018-07-01T20:25:18.935Z,17.30
2018-07-01T20:27:47.411Z,17.30
2018-07-01T20:30:15.871Z,17.20
2018-07-01T20:32:44.358Z,17.20
2018-07-01T20:35:12.843Z,17.20
2018-07-01T20:37:41.530Z,17.30
2018-07-01T20:40:10.588Z,17.10
2018-07-01T20:42:39.300Z,17.00
2018-07-01T20:45:07.810Z,16.90
2018-07-01T20:47:36.288Z,16.90
2018-07-01T20:50:04.722Z,16.90
2018-07-01T20:52:33.203Z,16.80
2018-07-01T20:55:01.676Z,16.80
2018-07-01T20:57:30.118Z,16.70
2018-07-01T20:59:58.595Z,16.60
2018-07-01T21:02:27.078Z,16.50
2018-07-01T21:04:55.560Z,16.50
2018-07-01T21:07:24.020Z,16.40
2018-07-01T21:09:52.469Z,16.40
2018-07-01T21:12:20.948Z,16.30
2018-07-01T21:14:49.417Z,16.20
2018-07-01T21:17:17.873Z,16.20
2018-07-01T21:19:46.301Z,16.20
2018-07-01T21:22:14.781Z,16.20
2018-07-01T21:24:43.911Z,16.10
2018-07-01T21:27:12.370Z,16.10
2018-07-01T21:29:40.912Z,16.00
2018-07-01T21:32:09.515Z,15.90
2018-07-01T21:34:37.957Z,16.00
2018-07-01T21:37:06.527Z,15.90
2018-07-01T21:39:35.042Z,15.80
2018-07-01T21:42:03.513Z,15.80
2018-07-01T21:44:32.700Z,15.70
2018-07-01T21:47:01.816Z,15.70
2018-07-01T21:49:30.285Z,15.70
2018-07-01T21:51:59.693Z,15.70
2018-07-01T21:54:28.207Z,15.60
2018-07-01T21:56:56.686Z,15.50
2018-07-01T21:59:25.154Z,15.50
2018-07-01T22:01:53.636Z,15.40
2018-07-01T22:04:22.279Z,15.40
2018-07-01T22:06:56.984Z,15.30
2018-07-01T22:09:25.459Z,15.20
2018-07-01T22:12:06.123Z,15.10
2018-07-01T22:14:44.601Z,15.10
2018-07-01T22:17:13.666Z,15.00
2018-07-01T22:19:42.134Z,14.90
2018-07-01T22:22:10.598Z,14.80
2018-07-01T22:27:08.121Z,14.70
2018-07-01T22:29:36.580Z,14.60
2018-07-01T22:32:05.050Z,14.60
2018-07-01T22:34:33.566Z,14.60
2018-07-01T22:37:02.047Z,14.50
2018-07-01T22:39:31.205Z,14.60
2018-07-01T22:42:00.751Z,14.50
2018-07-01T22:44:30.060Z,14.50
2018-07-01T22:46:58.489Z,14.50
2018-07-01T22:49:26.974Z,14.40
2018-07-01T22:51:55.450Z,14.50
2018-07-01T22:54:23.904Z,14.40
2018-07-01T22:56:52.398Z,14.40
2018-07-01T22:59:20.866Z,14.40
2018-07-01T23:03:09.987Z,14.40
2018-07-01T23:05:38.444Z,14.30
2018-07-01T23:10:36.206Z,14.30
2018-07-01T23:13:04.829Z,14.30
2018-07-01T23:15:33.518Z,14.20
2018-07-01T23:18:01.987Z,14.20
2018-07-01T23:20:30.495Z,14.20
2018-07-01T23:22:58.973Z,14.10
2018-07-01T23:25:27.458Z,14.10
2018-07-01T23:27:55.917Z,14.00
2018-07-01T23:30:24.371Z,14.00
2018-07-01T23:32:52.837Z,14.10
2018-07-01T23:35:21.297Z,14.00
2018-07-01T23:37:49.720Z,14.00
2018-07-01T23:40:18.209Z,13.90
2018-07-01T23:42:46.609Z,13.80
2018-07-01T23:45:16.101Z,13.90
2018-07-01T23:47:44.657Z,13.90
2018-07-01T23:50:13.108Z,13.80
2018-07-01T23:52:41.580Z,13.80
2018-07-01T23:55:10.427Z,13.80
2018-07-01T23:57:38.896Z,13.80
